Time;durP1;ratioP1;P1;durP2;ratioP2;P2;SDS_P1;SDS_P2;PMS_P1;PMS_P2;Temp;Humidity;BMP_temperature;BMP_pressure;BME280_temperature;BME280_humidity;BME280_pressure;Samples;Min_cycle;Max_cycle;Signal;HPM_P1;HPM_P2
2021/11/26 00:01:06;;;;;;;31.87;17.77;;;;;;;3.55;91.09;99666.59;5033936;28;20584;-74
2021/11/26 00:03:33;;;;;;;24.20;15.60;;;;;;;3.55;91.04;99674.31;5033642;28;20771;-77
2021/11/26 00:06:00;;;;;;;26.63;16.30;;;;;;;3.51;90.27;99684.66;5032956;28;20241;-78
2021/11/26 00:08:27;;;;;;;24.77;15.77;;;;;;;3.52;90.36;99683.78;5033178;28;20223;-77
2021/11/26 00:10:54;;;;;;;27.67;16.37;;;;;;;3.56;90.85;99663.13;5033533;28;20262;-77
2021/11/26 00:13:25;;;;;;;31.57;18.87;;;;;;;3.53;91.19;99665.72;5033011;28;20206;-77
2021/11/26 00:15:57;;;;;;;37.73;18.77;;;;;;;3.57;90.83;99646.78;5033490;28;20279;-77
2021/11/26 00:18:23;;;;;;;32.57;17.13;;;;;;;3.57;90.74;99654.53;5033127;28;20651;-77
2021/11/26 00:20:50;;;;;;;21.83;15.60;;;;;;;3.53;90.25;99672.63;5032813;28;20210;-77
2021/11/26 00:23:16;;;;;;;23.83;16.90;;;;;;;3.42;90.45;99667.47;5033104;28;20229;-76
2021/11/26 00:25:44;;;;;;;27.60;16.23;;;;;;;3.45;90.57;99657.16;5033284;28;20226;-76
2021/11/26 00:28:10;;;;;;;27.97;16.40;;;;;;;3.37;91.06;99658.91;5032942;28;20211;-77
2021/11/26 00:30:37;;;;;;;26.47;16.07;;;;;;;3.27;90.87;99640.00;5033232;28;20579;-77
2021/11/26 00:33:04;;;;;;;22.93;16.73;;;;;;;3.32;91.25;99650.31;5032789;28;20198;-77
2021/11/26 00:35:30;;;;;;;26.17;14.30;;;;;;;3.35;91.12;99643.44;5032442;28;20643;-77
2021/11/26 00:37:57;;;;;;;26.83;16.33;;;;;;;3.31;91.01;99651.16;5032967;28;20210;-77
2021/11/26 00:40:23;;;;;;;25.53;16.27;;;;;;;3.28;90.95;99652.03;5032902;28;20579;-75
2021/11/26 00:42:51;;;;;;;28.40;17.77;;;;;;;3.38;91.38;99643.41;5031566;28;20215;-79
2021/11/26 00:45:17;;;;;;;28.63;16.93;;;;;;;3.44;91.70;99624.47;5032896;28;20276;-75
2021/11/26 00:47:44;;;;;;;34.77;18.13;;;;;;;3.51;91.56;99615.84;5032786;28;20722;-76
2021/11/26 00:50:15;;;;;;;31.67;18.27;;;;;;;3.64;91.71;99615.81;5033068;28;20236;-76
2021/11/26 00:52:41;;;;;;;26.97;16.67;;;;;;;3.70;91.06;99619.22;5032269;28;20260;-78
2021/11/26 00:55:09;;;;;;;29.90;16.83;;;;;;;3.62;91.66;99609.78;5032458;28;20571;-77
2021/11/26 00:57:35;;;;;;;32.23;15.37;;;;;;;3.69;91.74;99606.34;5032306;28;20206;-77
2021/11/26 01:00:06;;;;;;;27.77;16.37;;;;;;;3.70;91.35;99615.78;5032973;28;20210;-76
2021/11/26 01:02:33;;;;;;;32.00;16.40;;;;;;;3.76;91.37;99595.09;5032478;28;20214;-77
2021/11/26 01:04:59;;;;;;;31.90;16.40;;;;;;;3.78;91.15;99601.97;5032327;28;20225;-77
2021/11/26 01:07:26;;;;;;;24.57;16.07;;;;;;;3.89;90.91;99611.41;5031689;28;20606;-76
2021/11/26 01:09:52;;;;;;;25.63;15.37;;;;;;;3.85;91.03;99605.38;5032403;28;20207;-77
2021/11/26 01:12:19;;;;;;;29.50;16.23;;;;;;;3.90;90.99;99595.03;5032028;28;20205;-77
2021/11/26 01:14:45;;;;;;;32.27;16.70;;;;;;;3.97;91.01;99591.56;5031843;28;20226;-76
2021/11/26 01:17:13;;;;;;;30.17;16.17;;;;;;;3.94;90.82;99582.13;5032409;28;20641;-77
2021/11/26 01:19:40;;;;;;;29.03;16.13;;;;;;;3.86;90.85;99583.00;5032262;28;20204;-77
2021/11/26 01:22:06;;;;;;;22.07;16.20;;;;;;;3.88;91.01;99569.22;5031718;28;20202;-77
2021/11/26 01:24:32;;;;;;;35.57;15.77;;;;;;;3.96;91.16;99564.88;5032063;28;20273;-75
2021/11/26 01:27:02;;;;;;;29.20;14.90;;;;;;;3.99;90.51;99579.50;5032087;28;20202;-77
2021/11/26 01:29:28;;;;;;;24.80;14.03;;;;;;;4.06;90.32;99585.47;5031592;28;20211;-77
2021/11/26 01:31:55;;;;;;;31.33;17.17;;;;;;;4.05;90.42;99583.78;5032174;28;20256;-78
2021/11/26 01:34:22;;;;;;;29.13;14.90;;;;;;;4.04;90.53;99577.72;5031948;28;20199;-77
2021/11/26 01:36:50;;;;;;;27.67;15.67;;;;;;;3.98;90.62;99567.44;5031491;28;20200;-77
2021/11/26 01:39:16;;;;;;;24.73;14.50;;;;;;;3.95;90.58;99564.88;5031969;28;20207;-77
2021/11/26 01:41:43;;;;;;;19.97;14.43;;;;;;;3.91;90.50;99565.78;5030713;28;20234;-75
2021/11/26 01:44:10;;;;;;;25.67;14.70;;;;;;;3.84;91.42;99544.28;5031793;28;20712;-78
2021/11/26 01:46:39;;;;;;;26.17;15.60;;;;;;;3.87;91.78;99530.53;5031887;28;20230;-78
2021/11/26 01:49:05;;;;;;;27.13;14.43;;;;;;;3.91;91.48;99532.22;5031665;28;20213;-77
2021/11/26 01:51:33;;;;;;;31.27;15.47;;;;;;;3.95;91.16;99539.06;5031360;28;20208;-78
2021/11/26 01:54:00;;;;;;;26.07;15.13;;;;;;;3.97;90.79;99547.66;5029771;28;20201;-78
2021/11/26 01:56:27;;;;;;;29.13;15.57;;;;;;;4.03;90.84;99539.03;5030343;28;20223;-78
2021/11/26 01:58:53;;;;;;;27.67;14.20;;;;;;;4.01;90.74;99543.34;5031629;28;20261;-77
2021/11/26 02:01:20;;;;;;;31.10;16.07;;;;;;;3.94;90.59;99543.38;5031546;28;20207;-76
2021/11/26 02:03:46;;;;;;;37.10;15.80;;;;;;;4.03;90.89;99526.97;5031243;28;20225;-76
2021/11/26 02:06:13;;;;;;;34.10;17.17;;;;;;;4.06;90.71;99536.41;5032353;28;20251;-76
2021/11/26 02:08:41;;;;;;;25.17;15.63;;;;;;;4.07;90.47;99533.81;5031444;28;20212;-77
2021/11/26 02:11:07;;;;;;;24.30;15.47;;;;;;;4.05;90.35;99542.44;5031432;28;20226;-76
2021/11/26 02:13:34;;;;;;;29.33;16.00;;;;;;;4.09;90.21;99538.97;5031364;28;20275;-76
2021/11/26 02:16:02;;;;;;;32.70;16.13;;;;;;;4.11;90.11;99534.66;5031459;28;20230;-76
2021/11/26 02:18:29;;;;;;;35.43;16.63;;;;;;;4.09;90.31;99533.81;5031434;28;20225;-76
2021/11/26 02:20:56;;;;;;;23.73;15.87;;;;;;;4.17;89.95;99522.53;5030984;28;20261;-76
2021/11/26 02:23:23;;;;;;;35.60;17.30;;;;;;;4.10;90.31;99518.31;5030986;28;20740;-76
2021/11/26 02:25:49;;;;;;;31.13;16.40;;;;;;;4.15;89.98;99519.13;5031391;28;20272;-76
2021/11/26 02:28:18;;;;;;;29.33;16.33;;;;;;;4.13;89.79;99520.84;5031410;28;20214;-76
2021/11/26 02:30:45;;;;;;;28.73;15.63;;;;;;;4.19;89.67;99522.53;5031233;28;20210;-77
2021/11/26 02:33:13;;;;;;;25.27;17.03;;;;;;;4.21;89.62;99515.63;5031028;28;20206;-74
2021/11/26 02:35:41;;;;;;;36.47;16.77;;;;;;;4.21;89.30;99525.97;5030995;28;20285;-77
2021/11/26 02:38:12;;;;;;;36.80;17.40;;;;;;;4.22;89.43;99531.97;5031033;28;20249;-77
2021/11/26 02:40:42;;;;;;;33.63;18.03;;;;;;;4.18;88.94;99524.28;5031371;28;20210;-77
2021/11/26 02:43:09;;;;;;;28.83;17.77;;;;;;;4.16;89.27;99528.59;5030538;28;20680;-74
2021/11/26 02:45:36;;;;;;;32.53;17.17;;;;;;;4.21;89.25;99522.53;5031004;28;20276;-77
2021/11/26 02:48:03;;;;;;;30.40;17.00;;;;;;;4.22;88.99;99531.97;5031230;28;20238;-77
2021/11/26 02:50:31;;;;;;;35.57;16.30;;;;;;;4.11;89.11;99520.00;5031243;28;20258;-77
2021/11/26 02:52:57;;;;;;;32.43;18.00;;;;;;;4.20;88.78;99520.81;5030707;28;20212;-77
2021/11/26 02:55:28;;;;;;;29.57;15.20;;;;;;;4.04;88.79;99526.06;5030988;28;20222;-77
2021/11/26 02:57:55;;;;;;;35.57;16.93;;;;;;;4.05;89.05;99512.31;5031197;28;20676;-77
2021/11/26 03:00:24;;;;;;;30.20;16.17;;;;;;;4.12;89.04;99502.78;5031022;28;20283;-77
2021/11/26 03:02:50;;;;;;;31.13;16.93;;;;;;;4.10;88.26;99517.44;5030923;28;20248;-77
2021/11/26 03:05:17;;;;;;;32.10;16.07;;;;;;;4.04;88.63;99517.47;5032159;28;20239;-75
2021/11/26 03:07:44;;;;;;;35.23;16.37;;;;;;;4.11;88.72;99506.25;5034247;28;20199;-74
2021/11/26 03:10:16;;;;;;;32.00;15.47;;;;;;;4.07;88.39;99520.06;5034554;28;20585;-75
2021/11/26 03:12:45;;;;;;;29.37;15.10;;;;;;;4.01;88.41;99510.63;5034310;28;20582;-76
2021/11/26 03:15:11;;;;;;;32.60;15.27;;;;;;;4.08;88.75;99507.09;5034479;28;20284;-77
2021/11/26 03:17:38;;;;;;;30.43;15.17;;;;;;;4.03;88.24;99503.72;5034363;28;20202;-76
2021/11/26 03:20:05;;;;;;;32.37;15.37;;;;;;;4.06;87.94;99508.00;5034558;28;20211;-76
2021/11/26 03:22:32;;;;;;;31.97;15.20;;;;;;;4.12;88.21;99501.09;5033854;28;20203;-76
2021/11/26 03:24:58;;;;;;;28.30;14.63;;;;;;;4.17;88.14;99493.28;5034109;28;20235;-76
2021/11/26 03:27:24;;;;;;;33.73;14.77;;;;;;;4.13;87.91;99501.94;5034307;28;20295;-77
2021/11/26 03:29:52;;;;;;;29.67;15.40;;;;;;;4.11;87.58;99504.50;5034501;28;20263;-76
2021/11/26 03:32:19;;;;;;;32.30;15.77;;;;;;;4.14;87.70;99503.63;5034060;28;20206;-75
2021/11/26 03:34:45;;;;;;;37.70;15.70;;;;;;;4.13;87.64;99501.94;5033857;28;20380;-76
2021/11/26 03:37:11;;;;;;;23.30;13.23;;;;;;;4.14;87.43;99507.09;5033911;28;20203;-76
2021/11/26 03:39:38;;;;;;;23.53;15.03;;;;;;;4.16;87.35;99515.69;5033752;28;20705;-76
2021/11/26 03:42:05;;;;;;;29.67;14.00;;;;;;;4.12;87.28;99524.31;5033390;28;20204;-76
2021/11/26 03:44:31;;;;;;;27.60;15.00;;;;;;;4.09;87.18;99513.16;5033825;28;20227;-77
2021/11/26 03:46:59;;;;;;;23.87;13.63;;;;;;;3.96;87.19;99514.94;5033931;28;20202;-77
2021/11/26 03:49:26;;;;;;;26.77;15.13;;;;;;;3.98;87.59;99496.03;5033740;28;20206;-77
2021/11/26 03:51:52;;;;;;;25.87;14.90;;;;;;;3.91;87.71;99489.19;5033222;28;20208;-77
2021/11/26 03:54:18;;;;;;;28.30;14.97;;;;;;;3.90;87.83;99484.88;5033887;28;20256;-76
2021/11/26 03:56:45;;;;;;;38.37;14.67;;;;;;;3.90;88.27;99484.88;5033732;28;20279;-77
2021/11/26 03:59:11;;;;;;;30.17;15.37;;;;;;;3.93;87.98;99466.78;5033679;28;20202;-76
2021/11/26 04:01:38;;;;;;;27.03;15.37;;;;;;;3.91;87.86;99473.69;5033572;28;20266;-74
2021/11/26 04:04:05;;;;;;;27.90;14.93;;;;;;;3.84;88.30;99461.69;5033351;28;20287;-77
2021/11/26 04:06:32;;;;;;;30.83;14.93;;;;;;;3.84;88.23;99450.50;5032822;28;20233;-77
2021/11/26 04:08:58;;;;;;;33.93;14.37;;;;;;;3.70;88.68;99433.38;5033297;28;20581;-77
2021/11/26 04:11:26;;;;;;;31.70;14.50;;;;;;;3.66;88.76;99434.28;5033442;28;20207;-77
2021/11/26 04:13:52;;;;;;;25.80;14.53;;;;;;;3.67;88.67;99425.69;5033365;28;20296;-77
2021/11/26 04:16:19;;;;;;;29.93;15.50;;;;;;;3.66;88.75;99421.38;5032414;28;20285;-75
2021/11/26 04:18:45;;;;;;;27.10;15.27;;;;;;;3.66;88.68;99413.63;5033335;28;20217;-76
2021/11/26 04:21:13;;;;;;;28.77;14.90;;;;;;;3.72;88.86;99408.44;5032916;28;20280;-76
2021/11/26 04:23:40;;;;;;;29.20;14.57;;;;;;;3.70;88.13;99425.66;5033145;28;20221;-76
2021/11/26 04:26:07;;;;;;;29.30;14.43;;;;;;;3.58;87.90;99430.91;5033090;28;20229;-76
2021/11/26 04:28:33;;;;;;;25.47;14.10;;;;;;;3.53;87.99;99428.38;5033217;28;20616;-76
2021/11/26 04:31:01;;;;;;;19.10;12.90;;;;;;;3.54;87.89;99427.47;5033082;28;20210;-76
2021/11/26 04:33:29;;;;;;;25.80;13.03;;;;;;;3.60;87.83;99433.47;5032717;28;20622;-76
2021/11/26 04:35:55;;;;;;;32.03;13.93;;;;;;;3.62;87.45;99432.59;5032783;28;20296;-76
2021/11/26 04:38:23;;;;;;;24.07;13.30;;;;;;;3.67;87.21;99438.59;5032672;28;20195;-76
2021/11/26 04:40:50;;;;;;;22.40;13.40;;;;;;;3.78;87.22;99441.94;5033020;28;20211;-76
2021/11/26 04:43:16;;;;;;;20.17;13.13;;;;;;;3.87;87.06;99451.34;5032459;28;20568;-76
2021/11/26 04:45:43;;;;;;;36.80;13.83;;;;;;;3.90;86.76;99458.19;5032520;28;20373;-76
2021/11/26 04:48:10;;;;;;;21.03;12.87;;;;;;;3.90;86.25;99459.03;5032952;28;20206;-76
2021/11/26 04:50:36;;;;;;;23.47;13.40;;;;;;;4.01;86.89;99445.22;5032649;28;20206;-76
2021/11/26 04:53:03;;;;;;;24.07;12.57;;;;;;;4.03;86.81;99440.91;5032316;28;20559;-76
2021/11/26 04:55:30;;;;;;;22.30;13.87;;;;;;;3.94;86.16;99446.97;5032575;28;20228;-76
2021/11/26 04:57:57;;;;;;;26.17;12.77;;;;;;;3.97;86.19;99445.25;5032517;28;20209;-76
2021/11/26 05:00:23;;;;;;;19.37;12.80;;;;;;;4.01;86.52;99446.06;5032242;28;20266;-76
2021/11/26 05:02:50;;;;;;;28.83;13.43;;;;;;;4.06;86.39;99440.84;5032386;28;20208;-76
2021/11/26 05:05:17;;;;;;;20.13;11.67;;;;;;;4.06;86.66;99427.94;5032076;28;20666;-76
2021/11/26 05:07:43;;;;;;;16.97;10.67;;;;;;;3.99;87.19;99416.81;5031908;28;20214;-76
2021/11/26 05:10:11;;;;;;;17.90;11.33;;;;;;;3.97;87.58;99400.50;5032217;28;20260;-76
2021/11/26 05:12:41;;;;;;;23.70;11.10;;;;;;;4.00;87.43;99386.69;5032018;28;20730;-76
2021/11/26 05:15:08;;;;;;;19.90;12.27;;;;;;;4.00;87.76;99376.38;5032373;28;20226;-76
2021/11/26 05:17:35;;;;;;;19.97;11.43;;;;;;;3.96;87.14;99385.84;5032295;28;20216;-76
2021/11/26 05:20:01;;;;;;;19.80;10.60;;;;;;;3.92;87.37;99366.97;5032127;28;20208;-76
2021/11/26 05:22:28;;;;;;;25.43;12.50;;;;;;;3.89;87.17;99368.72;5031652;28;20221;-76
2021/11/26 05:24:54;;;;;;;20.00;11.23;;;;;;;3.82;87.10;99369.66;5032022;28;20231;-76
2021/11/26 05:27:20;;;;;;;21.37;12.53;;;;;;;3.84;87.16;99360.16;5031695;28;20207;-75
2021/11/26 05:29:48;;;;;;;22.87;12.70;;;;;;;3.88;87.13;99369.59;5031844;28;20741;-76
2021/11/26 05:32:14;;;;;;;16.07;11.90;;;;;;;3.82;86.71;99373.06;5031860;28;20273;-76
2021/11/26 05:34:41;;;;;;;14.03;11.20;;;;;;;3.84;86.93;99362.75;5031822;28;20278;-76
2021/11/26 05:37:07;;;;;;;20.10;11.40;;;;;;;3.68;86.93;99351.69;5031506;28;20198;-76
2021/11/26 05:39:34;;;;;;;21.63;11.23;;;;;;;3.73;88.00;99329.31;5031755;28;20207;-76
2021/11/26 05:42:00;;;;;;;19.53;12.67;;;;;;;3.78;87.84;99335.25;5031174;28;20206;-76
2021/11/26 05:44:27;;;;;;;23.67;11.13;;;;;;;3.61;87.15;99339.72;5031657;28;20722;-76
2021/11/26 05:46:54;;;;;;;21.50;10.47;;;;;;;3.70;87.21;99343.06;5031496;28;20644;-76
2021/11/26 05:49:21;;;;;;;18.83;10.47;;;;;;;3.83;87.29;99322.31;5031878;28;20208;-76
2021/11/26 05:51:47;;;;;;;14.20;10.23;;;;;;;3.91;87.18;99328.28;5031102;28;20214;-76
2021/11/26 05:54:14;;;;;;;14.93;10.30;;;;;;;3.86;87.25;99323.13;5031933;28;20211;-76
2021/11/26 05:56:40;;;;;;;19.20;10.70;;;;;;;3.98;87.35;99314.41;5031914;28;20206;-76
2021/11/26 05:59:07;;;;;;;20.57;10.87;;;;;;;4.00;87.24;99322.16;5031497;28;20260;-76
2021/11/26 06:01:33;;;;;;;13.73;10.23;;;;;;;3.93;86.94;99324.78;5031436;28;20202;-74
2021/11/26 06:04:01;;;;;;;19.90;13.00;;;;;;;4.00;87.33;99307.50;5030969;28;20503;-76
2021/11/26 06:06:27;;;;;;;11.03;9.90;;;;;;;4.04;86.91;99328.97;5030978;28;20228;-76
2021/11/26 06:08:53;;;;;;;17.40;11.33;;;;;;;4.13;86.77;99326.31;5031395;28;20200;-76
2021/11/26 06:11:20;;;;;;;16.03;10.80;;;;;;;4.20;86.37;99343.44;5031666;28;20210;-76
2021/11/26 06:13:46;;;;;;;13.50;9.90;;;;;;;4.25;86.00;99349.41;5031307;28;20251;-76
2021/11/26 06:16:13;;;;;;;17.30;10.23;;;;;;;4.25;85.89;99354.59;5031504;28;20281;-76
2021/11/26 06:18:39;;;;;;;18.23;10.60;;;;;;;4.12;85.97;99355.59;5031493;28;20206;-76
2021/11/26 06:21:07;;;;;;;13.23;9.97;;;;;;;4.14;86.26;99333.19;5031282;28;20213;-76
2021/11/26 06:23:33;;;;;;;17.63;9.90;;;;;;;4.26;86.03;99332.19;5030871;28;20210;-76
2021/11/26 06:25:59;;;;;;;19.07;10.47;;;;;;;4.23;85.72;99337.41;5031442;28;20233;-77
2021/11/26 06:28:26;;;;;;;13.87;9.23;;;;;;;4.16;86.06;99352.09;5031406;28;20207;-76
2021/11/26 06:30:52;;;;;;;12.83;9.97;;;;;;;4.18;86.08;99340.91;5031496;28;20281;-77
2021/11/26 06:33:18;;;;;;;16.93;9.70;;;;;;;4.14;86.56;99322.84;5031076;28;20257;-76
2021/11/26 06:35:45;;;;;;;18.10;9.93;;;;;;;4.15;86.53;99316.81;5031283;28;20226;-76
2021/11/26 06:38:13;;;;;;;14.70;8.90;;;;;;;4.21;86.29;99311.59;5030588;28;20677;-76
2021/11/26 06:40:39;;;;;;;13.77;9.47;;;;;;;4.08;86.35;99321.19;5033707;28;20274;-76
2021/11/26 06:43:06;;;;;;;15.47;10.10;;;;;;;4.11;86.20;99307.41;5034511;28;20681;-76
2021/11/26 06:45:33;;;;;;;12.40;8.80;;;;;;;4.16;86.49;99300.44;5034820;28;20236;-76
2021/11/26 06:47:59;;;;;;;12.53;9.60;;;;;;;4.25;86.49;99300.34;5035176;28;20210;-77
2021/11/26 06:50:25;;;;;;;15.50;9.47;;;;;;;4.31;85.92;99310.59;5034862;28;20207;-76
2021/11/26 06:52:52;;;;;;;14.73;8.73;;;;;;;4.22;86.24;99313.28;5034805;28;20265;-76
2021/11/26 06:55:21;;;;;;;91.97;47.20;;;;;;;4.34;86.57;99291.63;5034104;28;20719;-76
2021/11/26 06:57:48;;;;;;;16.60;9.40;;;;;;;4.36;86.30;99295.03;5035011;28;20293;-77
2021/11/26 07:00:16;;;;;;;13.80;8.23;;;;;;;4.30;85.14;99323.53;5034774;28;20210;-76
2021/11/26 07:02:42;;;;;;;11.47;8.10;;;;;;;4.22;85.41;99323.63;5034709;28;20206;-77
2021/11/26 07:05:10;;;;;;;11.80;8.27;;;;;;;4.27;85.51;99321.84;5034260;28;20231;-76
2021/11/26 07:07:37;;;;;;;12.77;8.27;;;;;;;4.26;85.31;99317.56;5034297;28;20263;-77
2021/11/26 07:10:05;;;;;;;12.63;7.30;;;;;;;4.18;85.24;99321.94;5034673;28;20207;-76
2021/11/26 07:12:34;;;;;;;14.70;7.97;;;;;;;4.25;85.25;99309.84;5034027;28;20295;-77
2021/11/26 07:15:01;;;;;;;19.50;8.93;;;;;;;4.35;85.56;99306.25;5035045;28;20227;-77
2021/11/26 07:17:27;;;;;;;10.33;7.70;;;;;;;4.38;85.13;99309.66;5035232;28;20234;-76
2021/11/26 07:19:54;;;;;;;15.17;7.73;;;;;;;4.34;84.89;99318.34;5034924;28;20207;-77
2021/11/26 07:22:20;;;;;;;8.27;6.80;;;;;;;4.47;84.71;99315.59;5034206;28;20212;-77
2021/11/26 07:24:47;;;;;;;14.73;7.27;;;;;;;4.47;84.62;99311.28;5034989;28;20765;-77
2021/11/26 07:27:14;;;;;;;12.70;7.67;;;;;;;4.43;84.17;99324.25;5034676;28;20212;-77
2021/11/26 07:29:42;;;;;;;10.47;7.67;;;;;;;4.22;83.78;99336.53;5034561;28;20261;-76
2021/11/26 07:32:10;;;;;;;16.50;8.13;;;;;;;4.25;84.41;99325.31;5033629;28;20579;-76
2021/11/26 07:34:39;;;;;;;13.83;7.43;;;;;;;4.31;85.13;99312.34;5034116;28;20788;-76
2021/11/26 07:37:06;;;;;;;11.50;7.63;;;;;;;4.26;84.47;99311.53;5019927;28;20684;-77
2021/11/26 07:39:34;;;;;;;15.67;6.80;;;;;;;4.35;84.78;99299.34;5033989;28;20219;-76
2021/11/26 07:42:03;;;;;;;10.97;7.47;;;;;;;4.46;84.48;99298.38;5033364;28;20212;-77
2021/11/26 07:44:30;;;;;;;9.77;6.70;;;;;;;4.49;84.07;99316.44;5033988;28;20654;-77
2021/11/26 07:46:58;;;;;;;10.63;7.37;;;;;;;4.52;84.05;99322.41;5034016;28;20223;-76
2021/11/26 07:49:25;;;;;;;13.10;7.10;;;;;;;4.53;83.74;99318.09;5034024;28;20649;-76
2021/11/26 07:51:51;;;;;;;12.07;6.80;;;;;;;4.51;83.82;99317.25;5033354;28;20297;-76
2021/11/26 07:54:18;;;;;;;10.10;6.47;;;;;;;4.34;83.53;99330.38;5033939;28;20260;-76
2021/11/26 07:56:44;;;;;;;13.37;6.87;;;;;;;4.45;84.03;99310.44;5033747;28;20206;-77
2021/11/26 07:59:11;;;;;;;9.20;6.80;;;;;;;4.47;84.06;99300.09;5033866;28;20209;-76
2021/11/26 08:01:37;;;;;;;12.17;6.17;;;;;;;4.43;83.64;99303.59;5033674;28;20210;-75
2021/11/26 08:04:05;;;;;;;8.97;5.77;;;;;;;4.46;84.35;99301.81;5033580;28;20212;-77
2021/11/26 08:06:32;;;;;;;12.67;7.53;;;;;;;4.58;84.59;99273.25;5034523;28;20216;-76
2021/11/26 08:08:58;;;;;;;12.47;7.20;;;;;;;4.65;84.08;99276.59;5033445;28;20258;-77
2021/11/26 08:11:24;;;;;;;11.47;7.27;;;;;;;4.70;83.05;99320.47;5033846;28;20266;-76
2021/11/26 08:13:51;;;;;;;13.23;6.87;;;;;;;4.62;83.23;99320.59;5033469;28;20269;-76
2021/11/26 08:16:17;;;;;;;11.43;6.70;;;;;;;4.62;83.21;99299.91;5033605;28;20264;-77
2021/11/26 08:18:44;;;;;;;9.73;6.80;;;;;;;4.61;83.37;99297.34;5033139;28;20211;-76
2021/11/26 08:21:11;;;;;;;8.03;6.40;;;;;;;4.52;83.20;99304.34;5033277;28;20233;-76
2021/11/26 08:23:38;;;;;;;11.40;6.07;;;;;;;4.57;83.95;99283.59;5032989;28;20212;-77
2021/11/26 08:26:04;;;;;;;11.97;7.30;;;;;;;4.64;84.02;99266.25;5033360;28;20226;-76
2021/11/26 08:28:30;;;;;;;8.60;6.00;;;;;;;4.46;82.70;99301.81;5033081;28;20208;-76
2021/11/26 08:30:57;;;;;;;8.27;5.87;;;;;;;4.61;83.38;99287.00;5033272;28;20207;-75
2021/11/26 08:33:25;;;;;;;15.63;7.47;;;;;;;4.57;83.06;99293.94;5032594;28;20572;-76
2021/11/26 08:35:52;;;;;;;12.73;6.73;;;;;;;4.71;83.20;99276.50;5033056;28;20255;-76
2021/11/26 08:38:20;;;;;;;12.23;7.73;;;;;;;4.53;82.15;99316.38;5032771;28;20270;-75
2021/11/26 08:40:46;;;;;;;15.40;7.13;;;;;;;4.71;84.98;99237.72;5038020;28;20260;-75
2021/11/26 08:43:13;;;;;;;10.17;6.40;;;;;;;4.76;83.97;99248.88;5042813;28;20672;-76
2021/11/26 08:45:39;;;;;;;8.77;6.10;;;;;;;4.93;84.75;99219.31;5043314;28;20252;-75
2021/11/26 08:48:06;;;;;;;9.80;7.17;;;;;;;5.04;84.60;99230.34;5041914;28;20544;-76
2021/11/26 08:50:34;;;;;;;8.43;6.70;;;;;;;4.70;82.15;99292.91;5041699;28;20257;-76
2021/11/26 08:53:01;;;;;;;9.93;7.67;;;;;;;4.71;83.43;99273.91;5038442;28;20208;-76
2021/11/26 08:55:29;;;;;;;10.00;6.57;;;;;;;4.72;83.24;99242.03;5041846;28;20297;-75
2021/11/26 08:57:56;;;;;;;12.02;8.80;;;;;;;4.85;83.77;99221.16;5041736;28;20949;-76
2021/11/26 09:00:25;;;;;;;10.37;7.73;;;;;;;5.08;85.10;99205.28;5041440;28;20704;-75
2021/11/26 09:02:53;;;;;;;9.47;7.13;;;;;;;4.84;82.04;99274.59;5040516;28;20207;-75
2021/11/26 09:05:19;;;;;;;12.43;6.47;;;;;;;4.92;82.91;99271.91;5040656;28;20297;-76
2021/11/26 09:07:47;;;;;;;8.60;6.40;;;;;;;5.02;83.15;99251.94;5041270;28;20208;-76
2021/11/26 09:10:14;;;;;;;10.60;7.33;;;;;;;4.81;82.75;99266.88;5040954;28;20234;-75
2021/11/26 09:12:42;;;;;;;7.97;6.57;;;;;;;4.91;83.87;99244.34;5037106;28;20203;-76
2021/11/26 09:15:09;;;;;;;11.40;10.23;;;;;;;5.09;85.17;99197.47;5041987;28;20278;-76
2021/11/26 09:17:36;;;;;;;16.20;10.90;;;;;;;5.12;83.81;99225.06;5040482;28;20202;-75
2021/11/26 09:20:02;;;;;;;9.87;6.47;;;;;;;5.18;84.38;99215.44;5042123;28;20227;-75
2021/11/26 09:22:30;;;;;;;10.47;6.73;;;;;;;4.86;83.24;99253.91;5049843;28;20208;-76
2021/11/26 09:24:57;;;;;;;13.80;8.17;;;;;;;4.73;84.72;99219.63;5052005;28;20250;-77
2021/11/26 09:27:23;;;;;;;11.60;6.97;;;;;;;4.87;86.20;99171.13;5052050;28;20234;-76
2021/11/26 09:29:51;;;;;;;12.67;7.67;;;;;;;4.95;84.57;99182.19;5051762;28;20260;-76
2021/11/26 09:32:17;;;;;;;9.17;7.00;;;;;;;4.92;84.33;99200.34;5051473;28;20736;-75
2021/11/26 09:34:44;;;;;;;11.17;7.50;;;;;;;5.05;84.45;99188.06;5051292;28;20601;-76
2021/11/26 09:37:11;;;;;;;10.67;7.63;;;;;;;5.01;83.83;99196.75;5031636;28;20248;-76
2021/11/26 09:39:37;;;;;;;9.83;7.30;;;;;;;5.00;84.00;99210.59;5031942;28;20783;-75
2021/11/26 09:42:04;;;;;;;8.10;7.07;;;;;;;5.00;84.14;99213.16;5031736;28;20359;-75
2021/11/26 09:44:33;;;;;;;8.97;6.37;;;;;;;4.96;84.02;99211.50;5031929;28;20214;-75
2021/11/26 09:47:02;;;;;;;11.43;7.40;;;;;;;4.62;84.63;99191.34;5031211;28;20226;-74
2021/11/26 09:49:28;;;;;;;8.77;7.77;;;;;;;4.46;85.58;99153.69;5031767;28;20935;-76
2021/11/26 09:51:55;;;;;;;10.33;7.73;;;;;;;4.71;86.67;99110.22;5031276;28;20680;-76
2021/11/26 09:54:21;;;;;;;9.00;7.03;;;;;;;4.78;86.80;99091.16;5031524;28;20258;-75
2021/11/26 09:56:48;;;;;;;8.43;7.40;;;;;;;4.65;85.99;99111.16;5031294;28;20214;-76
2021/11/26 09:59:14;;;;;;;7.87;6.70;;;;;;;4.77;86.32;99099.78;5031608;28;20211;-76
2021/11/26 10:01:41;;;;;;;11.90;7.80;;;;;;;4.79;86.77;99077.34;5031234;28;20267;-75
2021/11/26 10:04:18;;;;;;;9.50;7.17;;;;;;;4.55;86.77;99083.78;5031344;28;20689;-76
2021/11/26 10:06:45;;;;;;;9.20;7.30;;;;;;;4.61;86.83;99069.91;5031038;28;20727;-76
2021/11/26 10:09:13;;;;;;;9.67;7.40;;;;;;;4.69;86.63;99065.47;5031018;28;20211;-76
2021/11/26 10:11:46;;;;;;;7.93;7.07;;;;;;;4.67;87.58;99036.19;5031053;28;20585;-74
2021/11/26 10:14:18;;;;;;;8.50;7.50;;;;;;;4.76;87.34;99039.47;5031227;28;20686;-77
2021/11/26 10:16:48;;;;;;;13.43;9.27;;;;;;;4.84;88.04;99023.00;5035690;28;20207;-77
2021/11/26 10:19:15;;;;;;;11.80;8.87;;;;;;;4.71;86.67;99045.59;5035540;28;20207;-76
2021/11/26 10:21:43;;;;;;;8.70;7.77;;;;;;;4.76;87.08;99042.06;5035024;28;20240;-75
2021/11/26 10:24:17;;;;;;;10.10;9.10;;;;;;;4.88;87.19;99019.47;5034148;28;20445;-75
2021/11/26 10:26:52;;;;;;;8.87;7.97;;;;;;;4.97;87.50;99003.75;5035636;28;20495;-77
2021/11/26 10:29:30;;;;;;;11.17;7.73;;;;;;;5.03;86.61;99034.66;5035424;28;20215;-77
2021/11/26 10:32:06;;;;;;;11.97;7.47;;;;;;;5.13;87.02;98994.84;5034948;28;20587;-76
2021/11/26 10:34:34;;;;;;;8.73;7.83;;;;;;;5.21;87.19;98994.66;5035105;28;20617;-77
2021/11/26 10:37:02;;;;;;;10.57;7.60;;;;;;;5.24;86.04;99020.47;5035185;28;20196;-76
2021/11/26 10:39:28;;;;;;;10.97;7.57;;;;;;;5.18;85.77;99024.03;5034814;28;20865;-76
2021/11/26 10:41:58;;;;;;;9.93;8.90;;;;;;;4.85;84.59;99063.44;5034215;28;20445;-76
2021/11/26 10:44:37;;;;;;;10.07;8.50;;;;;;;4.75;86.12;99022.25;5034888;28;20261;-76
2021/11/26 10:47:11;;;;;;;9.33;7.83;;;;;;;4.85;85.79;99029.84;5034818;28;20234;-76
2021/11/26 10:50:02;;;;;;;10.30;8.00;;;;;;;4.87;86.20;99003.06;5035122;28;20634;-76
2021/11/26 10:58:35;;;;;;;10.10;7.87;;;;;;;4.91;85.61;98996.97;5034768;28;20207;-77
2021/11/26 11:01:08;;;;;;;7.50;6.40;;;;;;;4.98;86.06;98979.63;5034775;28;20230;-76
2021/11/26 11:03:35;;;;;;;8.40;7.60;;;;;;;4.57;85.89;98984.66;5034164;28;20236;-77
2021/11/26 11:06:01;;;;;;;9.23;7.20;;;;;;;4.60;86.52;98972.56;5033949;28;20236;-74
2021/11/26 11:08:29;;;;;;;8.50;7.63;;;;;;;4.62;86.98;98948.44;5036755;28;20398;-77
2021/11/26 11:10:56;;;;;;;9.13;8.10;;;;;;;4.66;86.85;98950.06;5053782;28;20710;-75
2021/11/26 11:13:27;;;;;;;8.93;8.03;;;;;;;4.61;86.68;98951.88;5053476;28;20644;-76
2021/11/26 11:16:03;;;;;;;9.77;8.03;;;;;;;4.76;86.75;98936.09;5054237;28;20732;-76
2021/11/26 11:18:30;;;;;;;7.83;7.13;;;;;;;4.77;86.59;98953.28;5054284;28;20210;-76
2021/11/26 11:20:56;;;;;;;8.00;7.20;;;;;;;4.84;86.36;98932.50;5054413;28;20237;-76
2021/11/26 11:23:23;;;;;;;8.07;6.57;;;;;;;4.79;86.72;98942.91;5053615;28;20203;-76
2021/11/26 11:25:50;;;;;;;7.90;7.07;;;;;;;4.86;86.07;98936.75;5053759;28;20239;-76
2021/11/26 11:28:17;;;;;;;7.47;6.83;;;;;;;4.86;86.25;98934.16;5054022;28;20235;-76
2021/11/26 11:30:44;;;;;;;7.67;7.07;;;;;;;4.80;85.98;98956.69;5054201;28;20219;-76
2021/11/26 11:33:12;;;;;;;7.93;7.20;;;;;;;4.55;86.10;98946.81;5054020;28;20211;-76
2021/11/26 11:35:40;;;;;;;8.00;7.10;;;;;;;4.64;87.08;98912.19;5045905;28;20286;-76